Time;durP1;ratioP1;P1;durP2;ratioP2;P2;SDS_P1;SDS_P2;PMS_P1;PMS_P2;Temp;Humidity;BMP_temperature;BMP_pressure;BME280_temperature;BME280_humidity;BME280_pressure;Samples;Min_cycle;Max_cycle;Signal;HPM_P1;HPM_P2
2023/08/22 00:00:13;;;;;;;16.67;10.00;;;18.30;99.90;;;;;;5047095;28;20033;-70
2023/08/22 00:02:39;;;;;;;17.35;10.38;;;18.60;99.90;;;;;;5022026;28;20418;-69
2023/08/22 00:05:05;;;;;;;12.52;9.27;;;18.50;99.90;;;;;;5025265;28;20049;-69
2023/08/22 00:07:31;;;;;;;13.48;9.18;;;18.60;99.90;;;;;;5029929;28;20045;-70
2023/08/22 00:09:57;;;;;;;17.83;10.50;;;18.20;99.90;;;;;;5050892;28;20029;-70
2023/08/22 00:12:22;;;;;;;12.25;9.77;;;18.70;99.90;;;;;;5032209;28;20041;-70
2023/08/22 00:14:50;;;;;;;15.43;10.27;;;18.20;99.90;;;;;;5043975;28;20044;-69
2023/08/22 00:17:16;;;;;;;20.08;10.07;;;18.60;99.90;;;;;;5029337;28;20037;-70
2023/08/22 00:19:42;;;;;;;16.27;10.90;;;18.50;99.90;;;;;;5044077;28;20049;-69
2023/08/22 00:22:11;;;;;;;17.15;10.77;;;18.20;99.90;;;;;;5051708;28;20041;-69
2023/08/22 00:24:36;;;;;;;16.70;11.02;;;18.10;99.90;;;;;;5044938;28;20084;-69
2023/08/22 00:27:03;;;;;;;18.02;10.38;;;18.10;99.90;;;;;;5046856;28;20473;-69
2023/08/22 00:29:28;;;;;;;15.07;10.95;;;18.60;99.90;;;;;;5047964;28;20037;-69
2023/08/22 00:31:54;;;;;;;14.43;9.77;;;18.30;99.90;;;;;;5051292;28;20163;-70
2023/08/22 00:34:19;;;;;;;16.45;10.50;;;18.20;99.90;;;;;;5045584;28;20037;-70
2023/08/22 00:36:45;;;;;;;16.17;11.73;;;18.40;99.90;;;;;;5045042;28;20075;-69
2023/08/22 00:39:10;;;;;;;18.58;9.95;;;18.50;99.90;;;;;;5047416;28;20519;-69
2023/08/22 00:41:36;;;;;;;13.82;10.38;;;18.50;99.90;;;;;;5047899;28;20456;-69
2023/08/22 00:44:01;;;;;;;12.23;9.20;;;18.70;99.90;;;;;;5046621;28;20408;-69
2023/08/22 00:46:29;;;;;;;12.65;8.57;;;18.20;99.90;;;;;;5049947;28;20060;-69
2023/08/22 00:48:55;;;;;;;14.10;8.70;;;18.10;99.90;;;;;;5045364;28;20033;-70
2023/08/22 00:51:22;;;;;;;12.80;8.75;;;18.20;99.90;;;;;;5048008;28;20385;-69
2023/08/22 00:53:48;;;;;;;19.17;9.77;;;18.50;99.90;;;;;;5037391;28;20163;-69
2023/08/22 00:56:14;;;;;;;11.88;9.35;;;18.70;99.90;;;;;;5044801;28;20087;-69
2023/08/22 00:58:40;;;;;;;11.70;9.63;;;18.50;99.90;;;;;;5047562;28;20041;-69
2023/08/22 01:01:06;;;;;;;15.73;9.75;;;18.60;99.90;;;;;;5050948;28;20037;-69
2023/08/22 01:03:32;;;;;;;13.63;10.10;;;18.40;99.90;;;;;;5048372;28;20086;-70
2023/08/22 01:06:22;;;;;;;16.17;10.93;;;18.40;99.90;;;;;;5048503;28;20095;-71
2023/08/22 01:08:57;;;;;;;16.10;9.07;;;18.10;99.90;;;;;;5043315;28;20033;-69
2023/08/22 01:11:38;;;;;;;15.15;8.98;;;18.10;99.90;;;;;;5048609;28;20522;-69
2023/08/22 01:14:09;;;;;;;13.10;8.80;;;18.20;99.90;;;;;;5039623;28;20033;-69
2023/08/22 01:16:36;;;;;;;12.70;8.57;;;18.40;99.90;;;;;;5046942;28;20037;-69
2023/08/22 01:19:04;;;;;;;12.68;8.63;;;18.30;99.90;;;;;;5029596;28;20041;-70
2023/08/22 01:21:34;;;;;;;12.55;8.18;;;18.10;99.90;;;;;;5040866;28;20044;-69
2023/08/22 01:24:00;;;;;;;11.50;8.35;;;18.20;99.90;;;;;;5048497;28;20041;-70
2023/08/22 01:26:26;;;;;;;10.93;8.18;;;18.50;99.90;;;;;;5021904;28;20045;-70
2023/08/22 01:29:03;;;;;;;11.75;8.52;;;18.00;99.90;;;;;;5044243;28;20043;-69
2023/08/22 01:31:53;;;;;;;11.82;8.75;;;18.30;99.90;;;;;;5049781;28;20079;-69
2023/08/22 01:34:29;;;;;;;12.38;8.23;;;18.40;99.90;;;;;;5044632;28;20037;-69
2023/08/22 01:36:59;;;;;;;12.45;8.80;;;17.90;99.90;;;;;;5052798;28;20041;-69
2023/08/22 01:39:30;;;;;;;15.55;8.70;;;17.90;99.90;;;;;;5052590;28;20037;-69
2023/08/22 01:41:57;;;;;;;16.35;9.48;;;17.90;99.90;;;;;;5051555;28;20504;-70
2023/08/22 01:44:24;;;;;;;13.95;8.23;;;18.20;99.90;;;;;;5051120;28;20045;-69
2023/08/22 01:46:49;;;;;;;12.30;9.32;;;18.00;99.90;;;;;;5050455;28;20527;-69
2023/08/22 01:49:15;;;;;;;12.27;7.85;;;18.10;99.90;;;;;;5050712;28;20036;-70
2023/08/22 01:51:41;;;;;;;12.82;8.43;;;18.20;99.90;;;;;;5046824;28;20080;-70
2023/08/22 01:54:06;;;;;;;15.98;8.88;;;18.40;99.90;;;;;;5053927;28;20037;-69
2023/08/22 01:56:32;;;;;;;12.27;8.93;;;18.00;99.90;;;;;;5049551;28;20373;-70
2023/08/22 01:58:58;;;;;;;13.02;8.90;;;17.80;99.90;;;;;;5049271;28;20037;-70
2023/08/22 02:01:24;;;;;;;12.60;8.48;;;18.10;99.90;;;;;;5053216;28;20113;-70
2023/08/22 02:03:49;;;;;;;13.13;8.25;;;17.80;99.90;;;;;;5052936;28;20045;-69
2023/08/22 02:06:15;;;;;;;15.10;9.13;;;18.00;99.90;;;;;;5041994;28;20041;-70
2023/08/22 02:08:41;;;;;;;12.23;8.13;;;17.80;99.90;;;;;;5052378;28;20040;-70
2023/08/22 02:11:07;;;;;;;13.55;8.68;;;18.20;99.90;;;;;;5052710;28;20041;-70
2023/08/22 02:13:32;;;;;;;12.40;9.07;;;18.10;99.90;;;;;;5043238;28;20037;-70
2023/08/22 02:15:58;;;;;;;12.07;8.48;;;18.30;99.90;;;;;;5052277;28;20040;-70
2023/08/22 02:18:24;;;;;;;13.70;8.60;;;18.10;99.90;;;;;;5050732;28;20041;-70
2023/08/22 02:20:53;;;;;;;15.95;9.32;;;18.20;99.90;;;;;;5047426;28;20668;-69
2023/08/22 02:23:18;;;;;;;16.55;9.93;;;17.70;99.90;;;;;;5052818;28;20041;-70
2023/08/22 02:25:46;;;;;;;16.88;9.68;;;17.70;99.90;;;;;;5051914;28;22409;-70
2023/08/22 02:28:12;;;;;;;15.18;10.25;;;17.80;99.90;;;;;;5026472;28;20485;-70
2023/08/22 02:30:38;;;;;;;16.73;9.93;;;17.50;99.90;;;;;;5029926;28;20038;-70
2023/08/22 02:33:04;;;;;;;12.32;9.50;;;17.70;99.90;;;;;;5043950;28;20029;-71
2023/08/22 02:35:29;;;;;;;13.57;9.35;;;17.70;99.90;;;;;;5033970;28;20455;-70
2023/08/22 02:37:55;;;;;;;13.40;9.85;;;17.80;99.90;;;;;;5046056;28;20033;-70
2023/08/22 02:40:21;;;;;;;12.38;10.07;;;17.60;99.90;;;;;;5046258;28;20033;-70
2023/08/22 02:42:46;;;;;;;14.85;9.93;;;17.40;99.90;;;;;;5049505;28;20045;-71
2023/08/22 02:45:12;;;;;;;12.43;10.20;;;17.70;99.90;;;;;;5017885;28;20037;-70
2023/08/22 02:47:37;;;;;;;14.70;9.88;;;17.50;99.90;;;;;;5048244;28;20045;-70
2023/08/22 02:50:04;;;;;;;14.07;9.38;;;17.40;99.90;;;;;;5050528;28;20033;-70
2023/08/22 02:52:31;;;;;;;12.57;8.90;;;17.60;99.90;;;;;;5044149;28;20745;-70
2023/08/22 02:54:56;;;;;;;14.15;8.65;;;17.70;99.90;;;;;;5049906;28;20041;-70
2023/08/22 02:57:22;;;;;;;13.38;9.40;;;17.60;99.90;;;;;;5040432;28;20459;-71
2023/08/22 02:59:48;;;;;;;10.15;8.95;;;17.80;99.90;;;;;;5046849;28;20068;-70
2023/08/22 03:02:13;;;;;;;13.10;9.57;;;17.30;99.90;;;;;;5047011;28;20060;-70
2023/08/22 03:04:39;;;;;;;12.07;9.43;;;17.30;99.90;;;;;;5051432;28;20051;-70
2023/08/22 03:07:05;;;;;;;13.32;9.68;;;17.40;99.90;;;;;;5047254;28;20029;-70
2023/08/22 03:09:32;;;;;;;16.73;10.73;;;17.30;99.90;;;;;;5027053;28;20087;-70
2023/08/22 03:11:57;;;;;;;11.68;9.73;;;17.60;99.90;;;;;;5047574;28;20068;-69
2023/08/22 03:14:24;;;;;;;14.30;10.18;;;17.70;99.90;;;;;;5034605;28;20500;-69
2023/08/22 03:16:50;;;;;;;11.88;9.07;;;17.70;99.90;;;;;;5050474;28;20036;-69
2023/08/22 03:19:15;;;;;;;13.02;9.32;;;17.40;99.90;;;;;;5030761;28;20458;-70
2023/08/22 03:21:41;;;;;;;13.40;8.73;;;17.60;99.90;;;;;;5041963;28;20057;-69
2023/08/22 03:24:07;;;;;;;12.88;8.50;;;17.60;99.90;;;;;;5028094;28;20056;-69
2023/08/22 03:26:32;;;;;;;12.02;8.48;;;17.20;99.90;;;;;;5049904;28;20033;-69
2023/08/22 03:28:58;;;;;;;12.68;9.32;;;17.20;99.90;;;;;;5045865;28;20056;-69
2023/08/22 03:31:26;;;;;;;13.23;9.23;;;17.40;99.90;;;;;;5043476;28;20069;-69
2023/08/22 03:33:51;;;;;;;20.55;10.63;;;17.50;99.90;;;;;;5042137;28;20045;-70
2023/08/22 03:36:17;;;;;;;11.95;8.77;;;17.50;99.90;;;;;;5032613;28;20051;-69
2023/08/22 03:38:43;;;;;;;14.65;8.82;;;17.50;99.90;;;;;;5026755;28;20053;-70
2023/08/22 03:41:09;;;;;;;13.45;9.80;;;17.00;99.90;;;;;;5047883;28;20040;-69
2023/08/22 03:43:34;;;;;;;11.13;8.32;;;17.00;99.90;;;;;;5047762;28;20049;-69
2023/08/22 03:46:00;;;;;;;11.43;8.52;;;17.00;99.90;;;;;;5047752;28;20499;-69
2023/08/22 03:48:26;;;;;;;12.55;8.18;;;17.30;99.90;;;;;;5049558;28;20033;-70
2023/08/22 03:50:51;;;;;;;12.73;8.38;;;17.10;99.90;;;;;;5032185;28;20029;-69
2023/08/22 03:53:17;;;;;;;9.75;8.15;;;17.10;99.90;;;;;;5050537;28;20045;-69
2023/08/22 03:55:44;;;;;;;12.27;7.72;;;16.90;99.90;;;;;;5032200;28;20539;-69
2023/08/22 03:58:10;;;;;;;10.23;7.97;;;17.20;99.90;;;;;;5047328;28;20075;-69
2023/08/22 04:00:36;;;;;;;15.52;8.70;;;17.00;99.90;;;;;;5043896;28;20497;-69
2023/08/22 04:03:02;;;;;;;14.32;7.78;;;17.10;99.90;;;;;;5049929;28;20051;-70
2023/08/22 04:05:28;;;;;;;12.43;7.68;;;16.90;99.90;;;;;;5032829;28;20413;-69
2023/08/22 04:07:53;;;;;;;8.43;6.50;;;16.90;99.90;;;;;;5045401;28;20063;-69
2023/08/22 04:10:20;;;;;;;10.27;6.75;;;16.80;99.90;;;;;;5050559;28;20041;-69
2023/08/22 04:12:45;;;;;;;10.07;7.68;;;16.80;99.90;;;;;;5016166;28;20063;-69
2023/08/22 04:15:12;;;;;;;9.98;7.22;;;17.10;99.90;;;;;;5046266;28;20072;-69
2023/08/22 04:17:41;;;;;;;9.07;6.95;;;17.10;99.90;;;;;;5049134;28;20036;-69
2023/08/22 04:20:10;;;;;;;9.20;6.60;;;16.60;99.90;;;;;;5045669;28;20496;-69
2023/08/22 04:22:37;;;;;;;10.93;7.65;;;16.60;99.90;;;;;;5048656;28;20563;-70
2023/08/22 04:25:04;;;;;;;9.98;7.18;;;16.80;99.90;;;;;;5048294;28;20037;-69
2023/08/22 04:27:30;;;;;;;10.10;7.30;;;16.70;99.90;;;;;;5049017;28;20424;-69
2023/08/22 04:29:55;;;;;;;7.32;6.38;;;16.70;99.90;;;;;;5045347;28;20036;-69
2023/08/22 04:32:21;;;;;;;8.60;6.50;;;16.60;99.90;;;;;;5049015;28;20389;-69
2023/08/22 04:34:47;;;;;;;8.68;6.57;;;16.80;99.90;;;;;;5047664;28;20120;-69
2023/08/22 04:37:12;;;;;;;9.60;7.13;;;16.50;99.90;;;;;;5051178;28;20116;-71
2023/08/22 04:39:38;;;;;;;10.15;6.80;;;16.90;99.90;;;;;;5032442;28;20436;-70
2023/08/22 04:42:03;;;;;;;10.00;7.28;;;16.80;99.90;;;;;;5025433;28;20041;-70
2023/08/22 04:44:29;;;;;;;9.98;6.80;;;16.90;99.90;;;;;;5045451;28;20037;-70
2023/08/22 04:46:55;;;;;;;9.05;6.72;;;16.40;99.90;;;;;;5051059;28;20043;-70
2023/08/22 04:49:20;;;;;;;8.75;6.63;;;16.80;99.90;;;;;;5032328;28;20076;-70
2023/08/22 04:51:46;;;;;;;10.15;6.78;;;16.80;99.90;;;;;;5050458;28;20095;-70
2023/08/22 04:54:11;;;;;;;11.40;7.32;;;16.80;99.90;;;;;;5050352;28;20415;-70
2023/08/22 04:56:37;;;;;;;6.85;6.07;;;16.40;99.90;;;;;;5042472;28;20037;-70
2023/08/22 04:59:02;;;;;;;7.93;5.88;;;16.70;99.90;;;;;;5049672;28;20087;-70
2023/08/22 05:01:28;;;;;;;6.15;5.13;;;16.80;99.90;;;;;;5029436;28;20045;-70
2023/08/22 05:03:53;;;;;;;9.57;5.93;;;16.50;99.90;;;;;;5043818;28;20069;-69
2023/08/22 05:06:19;;;;;;;7.70;5.82;;;16.60;99.90;;;;;;5048079;28;20029;-70
2023/08/22 05:08:45;;;;;;;5.32;4.70;;;16.80;99.90;;;;;;5053711;28;20545;-70
2023/08/22 05:11:10;;;;;;;5.40;4.68;;;16.70;99.90;;;;;;5051455;28;20552;-70
2023/08/22 05:13:36;;;;;;;7.10;4.53;;;16.60;99.90;;;;;;5047602;28;20524;-70
2023/08/22 05:16:02;;;;;;;6.15;4.68;;;17.10;99.90;;;;;;5053534;28;20032;-69
2023/08/22 05:18:27;;;;;;;5.97;4.60;;;17.10;99.90;;;;;;5044146;28;20116;-70
2023/08/22 05:20:53;;;;;;;4.85;4.28;;;16.90;99.90;;;;;;5044037;28;20116;-69
2023/08/22 05:23:19;;;;;;;5.47;4.00;;;17.40;99.90;;;;;;5052524;28;20068;-70
2023/08/22 05:25:44;;;;;;;5.15;4.35;;;17.20;99.90;;;;;;5052782;28;20060;-69
2023/08/22 05:28:10;;;;;;;4.68;4.00;;;17.30;99.90;;;;;;5051482;28;20048;-70
2023/08/22 05:30:39;;;;;;;5.78;3.83;;;17.50;99.90;;;;;;5049725;28;20090;-69
2023/08/22 05:33:05;;;;;;;4.18;3.33;;;17.70;99.90;;;;;;5050932;28;20055;-70
2023/08/22 05:35:31;;;;;;;4.35;3.92;;;17.60;99.90;;;;;;5049813;28;20539;-70
2023/08/22 05:37:57;;;;;;;4.85;3.35;;;17.80;99.90;;;;;;5048242;28;20208;-70
2023/08/22 05:40:23;;;;;;;5.53;3.60;;;18.00;99.90;;;;;;5049161;28;20041;-70
2023/08/22 05:42:49;;;;;;;4.70;3.45;;;18.10;99.90;;;;;;5032770;28;20037;-70
2023/08/22 05:45:15;;;;;;;6.95;4.05;;;18.30;99.90;;;;;;5046656;28;20076;-70
2023/08/22 05:47:40;;;;;;;4.22;3.78;;;18.30;99.90;;;;;;5050541;28;20092;-70
2023/08/22 05:50:06;;;;;;;4.07;3.67;;;18.30;99.90;;;;;;5048792;28;20385;-70
2023/08/22 05:52:32;;;;;;;4.20;3.47;;;18.40;99.90;;;;;;5049470;28;20124;-70
2023/08/22 05:54:57;;;;;;;6.55;3.97;;;18.50;99.90;;;;;;5034477;28;20120;-70
2023/08/22 05:57:23;;;;;;;8.07;4.40;;;18.50;99.90;;;;;;5047459;28;20083;-70
2023/08/22 05:59:49;;;;;;;5.10;3.92;;;18.30;99.90;;;;;;5046288;28;20037;-71
2023/08/22 06:02:15;;;;;;;5.30;4.18;;;18.30;99.90;;;;;;5045580;28;20045;-70
2023/08/22 06:04:41;;;;;;;6.45;4.40;;;18.60;99.90;;;;;;5052351;28;20116;-70
2023/08/22 06:07:06;;;;;;;6.10;5.18;;;18.90;99.90;;;;;;5052209;28;20080;-69
2023/08/22 06:09:32;;;;;;;7.78;4.55;;;18.80;99.90;;;;;;5049251;28;20041;-69
2023/08/22 06:11:57;;;;;;;6.32;4.55;;;18.80;99.90;;;;;;5051575;28;20044;-69
2023/08/22 06:14:23;;;;;;;6.63;5.05;;;18.90;99.90;;;;;;5048877;28;20044;-70
2023/08/22 06:16:49;;;;;;;12.63;5.57;;;18.90;99.90;;;;;;5045330;28;20078;-70
2023/08/22 06:19:14;;;;;;;8.27;5.90;;;19.20;99.90;;;;;;5050415;28;20041;-69
2023/08/22 06:21:40;;;;;;;8.48;5.95;;;19.20;99.90;;;;;;5045845;28;20026;-70
2023/08/22 06:24:06;;;;;;;9.27;5.90;;;19.70;99.90;;;;;;5053485;28;20086;-69
2023/08/22 06:26:31;;;;;;;11.32;7.78;;;19.60;99.90;;;;;;5030957;28;20049;-69
2023/08/22 06:28:58;;;;;;;12.93;7.20;;;19.70;99.90;;;;;;5046513;28;20036;-70
2023/08/22 06:31:23;;;;;;;11.52;8.02;;;19.90;99.90;;;;;;5047591;28;20037;-70
2023/08/22 06:33:49;;;;;;;13.18;8.73;;;20.10;99.90;;;;;;5031563;28;20056;-70
2023/08/22 06:36:15;;;;;;;15.23;8.07;;;19.90;99.90;;;;;;5046462;28;20496;-69
2023/08/22 06:38:40;;;;;;;11.13;7.30;;;20.50;99.90;;;;;;5052237;28;20037;-70
2023/08/22 06:41:07;;;;;;;9.00;6.97;;;20.80;99.90;;;;;;5053407;28;20435;-70
2023/08/22 06:43:33;;;;;;;11.43;7.40;;;21.00;99.90;;;;;;5046768;28;20041;-70
2023/08/22 06:45:59;;;;;;;10.27;6.47;;;21.20;99.90;;;;;;5051087;28;20040;-70
2023/08/22 06:48:29;;;;;;;13.00;6.43;;;21.60;99.90;;;;;;5046976;28;20033;-70
2023/08/22 06:50:55;;;;;;;9.88;6.65;;;22.10;99.90;;;;;;5051459;28;20075;-70
2023/08/22 06:53:20;;;;;;;14.88;6.47;;;22.10;99.90;;;;;;5051151;28;20068;-70
2023/08/22 06:55:49;;;;;;;7.65;6.22;;;22.70;99.90;;;;;;5052899;28;20575;-70
2023/08/22 06:58:15;;;;;;;10.45;6.18;;;22.60;99.90;;;;;;5052687;28;20048;-71
2023/08/22 07:00:41;;;;;;;9.23;5.47;;;22.70;99.90;;;;;;5052655;28;20045;-70
2023/08/22 07:03:06;;;;;;;10.88;5.55;;;22.80;99.90;;;;;;5045192;28;20057;-71
2023/08/22 07:05:34;;;;;;;9.02;6.05;;;22.70;99.90;;;;;;5049353;28;20493;-70
2023/08/22 07:08:00;;;;;;;10.73;6.95;;;22.50;99.90;;;;;;5052679;28;20044;-71
2023/08/22 07:10:26;;;;;;;7.43;4.68;;;22.40;99.90;;;;;;5052428;28;20408;-70
2023/08/22 07:12:51;;;;;;;9.50;6.18;;;22.60;99.90;;;;;;5050436;28;20060;-71
2023/08/22 07:15:17;;;;;;;11.80;5.00;;;22.90;99.90;;;;;;5043859;28;20056;-71
2023/08/22 07:17:43;;;;;;;6.40;5.00;;;22.80;99.90;;;;;;5034713;28;20044;-71
2023/08/22 07:20:09;;;;;;;9.10;4.80;;;23.00;99.90;;;;;;5052484;28;20040;-71
2023/08/22 07:22:34;;;;;;;11.70;5.65;;;23.10;99.90;;;;;;5032191;28;20515;-70
2023/08/22 07:25:00;;;;;;;6.97;4.18;;;23.00;99.90;;;;;;5050067;28;20115;-71
2023/08/22 07:27:25;;;;;;;7.97;4.22;;;23.00;99.90;;;;;;5034337;28;20521;-71
2023/08/22 07:29:51;;;;;;;9.60;4.85;;;23.10;99.90;;;;;;5048807;28;20040;-70
2023/08/22 07:32:20;;;;;;;9.98;4.22;;;23.20;99.90;;;;;;5034122;28;20048;-70
2023/08/22 07:34:46;;;;;;;8.02;4.07;;;23.30;99.90;;;;;;5034741;28;20049;-71
2023/08/22 07:37:13;;;;;;;6.93;4.00;;;23.40;99.90;;;;;;5031316;28;20060;-71
2023/08/22 07:39:39;;;;;;;7.97;4.03;;;23.30;99.90;;;;;;5052173;28;20049;-70
2023/08/22 07:42:04;;;;;;;6.30;3.92;;;23.50;99.90;;;;;;5047618;28;20511;-71
2023/08/22 07:44:30;;;;;;;7.43;3.80;;;23.40;99.90;;;;;;5051405;28;20041;-71
2023/08/22 07:46:56;;;;;;;7.43;3.70;;;23.60;99.90;;;;;;5051842;28;20061;-71
2023/08/22 07:49:23;;;;;;;6.15;3.45;;;23.80;99.90;;;;;;5051899;28;20041;-71
2023/08/22 07:51:49;;;;;;;7.15;2.72;;;23.60;99.90;;;;;;5052182;28;20394;-71
2023/08/22 07:54:14;;;;;;;4.30;2.63;;;23.30;99.90;;;;;;5052393;28;20044;-71
2023/08/22 07:56:40;;;;;;;6.45;3.20;;;22.90;99.90;;;;;;5052235;28;20032;-71
2023/08/22 07:59:05;;;;;;;4.70;2.90;;;22.60;99.90;;;;;;5051901;28;20496;-70
2023/08/22 08:01:31;;;;;;;6.70;3.47;;;22.30;99.90;;;;;;5052005;28;20049;-71
2023/08/22 08:03:58;;;;;;;6.95;2.80;;;22.40;99.90;;;;;;5034051;28;20045;-71
2023/08/22 08:06:24;;;;;;;4.28;2.42;;;22.50;99.90;;;;;;5052121;28;20054;-71
2023/08/22 08:08:50;;;;;;;6.43;2.40;;;22.70;99.90;;;;;;5051822;28;20029;-71
2023/08/22 08:11:15;;;;;;;4.93;2.40;;;22.50;99.90;;;;;;5051988;28;20497;-70
2023/08/22 08:13:41;;;;;;;3.45;2.20;;;22.50;99.90;;;;;;5051896;28;20404;-71
2023/08/22 08:16:07;;;;;;;5.25;2.53;;;22.50;99.90;;;;;;5051740;28;20094;-71
2023/08/22 08:18:32;;;;;;;5.13;2.55;;;22.70;99.90;;;;;;5051426;28;20036;-71
2023/08/22 08:20:58;;;;;;;3.97;2.38;;;22.80;99.90;;;;;;5051955;28;20045;-71
2023/08/22 08:23:23;;;;;;;4.03;2.35;;;23.00;99.90;;;;;;5051776;28;20033;-71
2023/08/22 08:25:49;;;;;;;6.85;2.38;;;23.10;99.90;;;;;;5051598;28;20488;-69
2023/08/22 08:28:15;;;;;;;6.05;2.90;;;23.40;99.90;;;;;;5051237;28;20500;-71
2023/08/22 08:30:40;;;;;;;10.98;2.70;;;23.60;99.90;;;;;;5041900;28;20024;-73
2023/08/22 08:33:07;;;;;;;3.45;2.38;;;24.10;99.90;;;;;;5045604;28;20087;-73
2023/08/22 08:35:32;;;;;;;6.00;2.47;;;24.30;99.90;;;;;;5033448;28;20079;-73
2023/08/22 08:37:59;;;;;;;9.55;2.78;;;24.40;99.90;;;;;;5049048;28;20065;-72
2023/08/22 08:40:30;;;;;;;5.95;2.58;;;24.30;99.90;;;;;;5032412;28;20033;-73
2023/08/22 08:42:59;;;;;;;5.53;3.08;;;24.00;99.90;;;;;;5047644;28;20509;-72
2023/08/22 08:45:28;;;;;;;4.72;2.08;;;23.90;99.90;;;;;;5050483;28;20140;-72
2023/08/22 08:47:54;;;;;;;4.05;1.90;;;24.20;99.90;;;;;;5048436;28;20037;-72
2023/08/22 08:50:19;;;;;;;3.40;1.98;;;24.40;99.90;;;;;;5045561;28;20044;-72
2023/08/22 08:52:46;;;;;;;3.88;1.30;;;24.50;99.90;;;;;;5029521;28;20045;-73
2023/08/22 08:55:12;;;;;;;2.38;1.10;;;24.70;99.90;;;;;;5051073;28;20415;-74
2023/08/22 08:57:37;;;;;;;2.03;1.27;;;24.80;99.90;;;;;;5025006;28;20045;-74
2023/08/22 09:00:06;;;;;;;7.72;1.63;;;25.10;99.90;;;;;;5030201;28;20500;-74
2023/08/22 09:02:32;;;;;;;2.58;1.02;;;25.10;99.90;;;;;;5048439;28;20115;-74
2023/08/22 09:04:57;;;;;;;1.88;0.95;;;25.40;99.90;;;;;;5047112;28;20124;-74
2023/08/22 09:07:23;;;;;;;6.65;1.02;;;25.50;99.90;;;;;;5050856;28;20045;-74
2023/08/22 09:09:49;;;;;;;2.22;1.30;;;25.80;99.90;;;;;;5032613;28;20534;-74
2023/08/22 09:12:15;;;;;;;3.10;1.27;;;25.90;99.90;;;;;;5050771;28;20037;-74
2023/08/22 09:14:43;;;;;;;2.55;1.20;;;26.10;99.00;;;;;;5033274;28;20044;-74
2023/08/22 09:17:12;;;;;;;4.70;1.20;;;26.40;98.60;;;;;;5030083;28;20087;-74
2023/08/22 09:19:39;;;;;;;5.05;1.35;;;26.40;97.40;;;;;;5048472;28;20049;-74
2023/08/22 09:22:04;;;;;;;2.15;0.95;;;26.60;97.40;;;;;;5049387;28;20033;-74
2023/08/22 09:24:32;;;;;;;1.75;1.17;;;26.60;96.80;;;;;;5042722;28;20701;-73
2023/08/22 09:27:00;;;;;;;1.20;0.52;;;26.10;93.70;;;;;;5042968;28;20286;-74
2023/08/22 09:29:30;;;;;;;2.85;1.08;;;25.80;94.40;;;;;;5030667;28;20037;-72
2023/08/22 09:32:01;;;;;;;3.40;1.20;;;25.80;95.60;;;;;;5051073;28;20098;-73
2023/08/22 09:34:27;;;;;;;3.05;0.93;;;25.70;93.40;;;;;;5050874;28;20591;-73
2023/08/22 09:36:54;;;;;;;3.95;1.20;;;25.60;96.00;;;;;;5045226;28;20033;-72
2023/08/22 09:39:20;;;;;;;3.10;0.95;;;25.20;95.50;;;;;;5031898;28;20120;-74
2023/08/22 09:41:52;;;;;;;2.92;1.02;;;25.00;96.30;;;;;;5032814;28;20037;-74
2023/08/22 09:44:24;;;;;;;4.55;1.38;;;24.80;97.30;;;;;;5030486;28;20045;-73
2023/08/22 09:46:51;;;;;;;2.50;0.75;;;24.60;97.80;;;;;;5031026;28;20045;-73
2023/08/22 09:49:17;;;;;;;3.20;0.88;;;24.80;98.40;;;;;;5043322;28;20055;-73
2023/08/22 09:51:51;;;;;;;4.60;0.90;;;25.00;98.70;;;;;;5034083;28;20501;-74
2023/08/22 09:54:17;;;;;;;2.42;0.90;;;25.10;96.70;;;;;;5034298;28;20047;-74
2023/08/22 09:56:44;;;;;;;2.30;0.95;;;25.30;97.80;;;;;;5035439;28;20424;-74
2023/08/22 09:59:13;;;;;;;1.55;0.80;;;25.30;94.50;;;;;;5047943;28;20472;-74
2023/08/22 10:01:39;;;;;;;2.80;1.08;;;25.10;93.60;;;;;;5051531;28;20036;-74
2023/08/22 10:04:05;;;;;;;3.33;1.48;;;25.10;95.00;;;;;;5032153;28;20045;-73
2023/08/22 10:06:33;;;;;;;2.40;0.60;;;25.20;94.70;;;;;;5019375;28;20082;-73
2023/08/22 10:09:06;;;;;;;1.83;0.80;;;25.20;94.50;;;;;;5044800;28;20057;-74
2023/08/22 10:11:33;;;;;;;1.60;0.80;;;25.10;94.60;;;;;;5035778;28;20038;-69
2023/08/22 10:13:58;;;;;;;2.58;1.20;;;25.20;93.70;;;;;;5043302;28;20044;-70
2023/08/22 10:16:29;;;;;;;1.77;0.90;;;25.20;93.90;;;;;;5053018;28;20175;-69
2023/08/22 10:19:02;;;;;;;1.98;0.80;;;24.80;92.90;;;;;;5053822;28;20044;-69
2023/08/22 10:21:32;;;;;;;3.13;1.15;;;24.60;95.20;;;;;;5035740;28;20065;-69
2023/08/22 10:23:58;;;;;;;3.58;1.45;;;24.60;97.10;;;;;;5041907;28;20043;-69
2023/08/22 10:26:47;;;;;;;3.83;1.40;;;24.40;96.80;;;;;;5050431;28;20649;-70
2023/08/22 10:29:18;;;;;;;3.00;1.30;;;24.40;97.80;;;;;;5040468;28;20068;-71
2023/08/22 10:32:01;;;;;;;4.07;1.85;;;24.50;98.50;;;;;;5050932;28;20107;-71
2023/08/22 10:34:39;;;;;;;7.70;2.13;;;24.60;97.00;;;;;;5051659;28;20544;-71
2023/08/22 10:37:17;;;;;;;4.85;2.05;;;24.60;96.80;;;;;;5048382;28;20041;-71
2023/08/22 10:39:44;;;;;;;5.47;1.95;;;24.70;97.70;;;;;;5051361;28;20128;-72
2023/08/22 10:42:13;;;;;;;6.03;2.38;;;24.70;97.70;;;;;;5049303;28;20055;-71
2023/08/22 10:44:39;;;;;;;4.70;2.00;;;24.90;97.50;;;;;;5050967;28;20037;-71
2023/08/22 10:47:14;;;;;;;4.68;2.15;;;25.10;97.80;;;;;;5080591;22;20051;-73
2023/08/22 10:49:40;;;;;;;5.32;2.75;;;25.10;99.00;;;;;;5070885;28;20044;-73
2023/08/22 10:52:07;;;;;;;4.80;2.60;;;25.10;98.60;;;;;;5064822;28;20075;-73
2023/08/22 10:54:53;;;;;;;7.60;3.00;;;25.10;99.20;;;;;;5070554;28;20040;-73
2023/08/22 10:57:19;;;;;;;8.27;2.97;;;25.10;99.40;;;;;;5060994;28;20036;-73
2023/08/22 10:59:54;;;;;;;5.20;2.80;;;25.00;98.80;;;;;;5060355;28;20059;-73
2023/08/22 11:02:20;;;;;;;6.22;2.97;;;25.10;99.60;;;;;;5058069;28;20420;-73
2023/08/22 11:04:47;;;;;;;7.05;3.40;;;25.10;99.90;;;;;;5062593;28;20052;-73
2023/08/22 11:07:12;;;;;;;9.82;4.03;;;25.00;99.90;;;;;;5059960;28;20044;-73
2023/08/22 11:09:39;;;;;;;7.50;3.03;;;25.20;99.90;;;;;;5061572;28;20036;-73
2023/08/22 11:12:20;;;;;;;4.10;2.47;;;25.10;99.90;;;;;;5064549;28;20060;-73
2023/08/22 11:14:46;;;;;;;4.72;2.53;;;25.10;99.50;;;;;;5061644;28;20040;-73
2023/08/22 11:17:16;;;;;;;4.90;2.92;;;25.00;98.40;;;;;;5064152;28;20036;-73
2023/08/22 11:19:42;;;;;;;4.97;2.85;;;25.10;98.10;;;;;;5057668;28;20044;-73
2023/08/22 11:22:08;;;;;;;7.03;3.08;;;25.00;98.90;;;;;;5045609;28;20045;-73
2023/08/22 11:24:34;;;;;;;4.20;2.33;;;24.90;99.60;;;;;;5064134;28;20033;-73
2023/08/22 11:27:03;;;;;;;5.35;3.17;;;25.10;99.90;;;;;;5035690;28;20052;-73
2023/08/22 11:29:30;;;;;;;5.15;2.53;;;25.20;99.90;;;;;;5036328;28;20398;-74
2023/08/22 11:31:55;;;;;;;7.75;2.90;;;25.10;99.80;;;;;;5055345;28;20043;-74
2023/08/22 11:34:21;;;;;;;7.07;3.65;;;25.00;99.30;;;;;;5052680;28;20040;-74
2023/08/22 11:36:47;;;;;;;5.25;3.65;;;25.00;99.90;;;;;;5052050;28;20053;-74
2023/08/22 11:39:13;;;;;;;7.10;2.75;;;24.90;99.90;;;;;;5063919;28;20040;-74
2023/08/22 11:41:39;;;;;;;8.85;2.90;;;25.00;99.90;;;;;;5061700;28;20052;-74
2023/08/22 11:44:11;;;;;;;5.30;2.05;;;25.10;99.90;;;;;;5072330;28;20405;-74
2023/08/22 11:46:37;;;;;;;3.38;1.33;;;25.00;98.90;;;;;;5070845;28;20047;-74
2023/08/22 11:49:09;;;;;;;2.60;1.00;;;25.00;98.30;;;;;;5072111;28;20039;-74
2023/08/22 11:51:35;;;;;;;4.57;1.30;;;25.00;97.40;;;;;;5072392;28;20059;-74
2023/08/22 11:54:00;;;;;;;2.60;1.13;;;24.90;97.60;;;;;;5070882;28;20520;-74
2023/08/22 11:56:26;;;;;;;4.57;1.15;;;25.00;97.90;;;;;;5070935;28;20408;-74
2023/08/22 11:58:52;;;;;;;1.23;0.90;;;25.00;98.90;;;;;;5070720;28;20037;-74
2023/08/22 12:01:21;;;;;;;3.63;1.30;;;25.00;98.20;;;;;;5072020;28;20095;-74
2023/08/22 12:03:47;;;;;;;4.32;1.00;;;25.00;98.60;;;;;;5072074;28;20036;-74
2023/08/22 12:06:13;;;;;;;1.83;0.68;;;25.00;98.40;;;;;;5066479;28;20041;-74
2023/08/22 12:08:39;;;;;;;2.80;0.90;;;25.10;99.30;;;;;;5044341;28;20408;-73
2023/08/22 12:11:05;;;;;;;2.95;0.80;;;25.10;99.20;;;;;;5050653;28;20041;-72
2023/08/22 12:13:31;;;;;;;3.83;1.35;;;25.10;99.40;;;;;;5051329;28;20040;-72
2023/08/22 12:15:56;;;;;;;3.38;0.80;;;25.10;99.00;;;;;;5051663;28;20051;-73
2023/08/22 12:18:30;;;;;;;1.50;0.70;;;25.10;97.40;;;;;;5050138;28;20127;-72
2023/08/22 12:20:55;;;;;;;2.25;0.57;;;25.10;96.70;;;;;;5047640;28;20049;-73
2023/08/22 12:23:21;;;;;;;1.92;0.60;;;25.10;96.50;;;;;;5042872;28;20408;-73
2023/08/22 12:25:46;;;;;;;2.63;0.70;;;25.00;95.60;;;;;;5044393;28;20040;-73
2023/08/22 12:28:14;;;;;;;5.40;1.25;;;25.00;95.90;;;;;;5057733;28;20051;-76
2023/08/22 12:30:40;;;;;;;2.50;0.40;;;25.00;96.40;;;;;;5061456;28;20052;-74
2023/08/22 12:33:07;;;;;;;1.75;0.35;;;25.00;95.80;;;;;;5048618;28;20029;-73
2023/08/22 12:35:41;;;;;;;6.53;1.10;;;25.10;97.40;;;;;;5058653;28;20496;-73
2023/08/22 12:38:07;;;;;;;3.50;0.70;;;25.00;97.70;;;;;;5030269;28;20076;-73
2023/08/22 12:40:33;;;;;;;2.45;0.77;;;25.00;98.00;;;;;;5031595;28;20041;-73